createdAt,value
2023-11-14T00:02:25.368Z,12.73
2023-11-14T00:04:52.859Z,9.27
2023-11-14T00:07:19.687Z,11.27
2023-11-14T00:09:49.259Z,8.60
2023-11-14T00:12:16.662Z,11.37
2023-11-14T00:14:46.714Z,12.63
2023-11-14T00:17:13.873Z,11.47
2023-11-14T00:19:41.252Z,11.43
2023-11-14T00:22:11.890Z,9.33
2023-11-14T00:24:38.707Z,8.77
2023-11-14T00:27:05.982Z,10.67
2023-11-14T00:29:32.802Z,10.77
2023-11-14T00:32:00.398Z,11.50
2023-11-14T00:34:27.267Z,10.10
2023-11-14T00:36:54.009Z,9.20
2023-11-14T00:39:20.809Z,18.93
2023-11-14T00:41:53.413Z,9.33
2023-11-14T00:44:20.829Z,10.70
2023-11-14T00:46:47.616Z,13.57
2023-11-14T00:49:15.078Z,9.87
2023-11-14T00:51:41.903Z,10.33
2023-11-14T00:54:09.644Z,9.40
2023-11-14T00:56:36.374Z,11.60
2023-11-14T00:59:05.066Z,4.23
2023-11-14T01:01:32.062Z,14.13
2023-11-14T01:03:59.261Z,8.73
2023-11-14T01:06:26.597Z,10.03
2023-11-14T01:08:54.494Z,6.37
2023-11-14T01:11:21.369Z,10.73
2023-11-14T01:13:48.205Z,9.47
2023-11-14T01:16:16.220Z,6.83
2023-11-14T01:18:43.410Z,11.47
2023-11-14T01:21:16.339Z,8.73
2023-11-14T01:23:43.554Z,10.23
2023-11-14T01:26:10.332Z,11.10
2023-11-14T01:28:37.271Z,12.23
2023-11-14T01:31:04.238Z,10.00
2023-11-14T01:33:31.022Z,8.97
2023-11-14T01:35:57.787Z,8.70
2023-11-14T01:38:24.531Z,10.77
2023-11-14T01:40:52.308Z,7.97
2023-11-14T01:43:19.184Z,8.47
2023-11-14T01:45:45.985Z,12.30
2023-11-14T01:48:14.097Z,9.97
2023-11-14T01:50:42.605Z,9.93
2023-11-14T01:53:10.130Z,8.33
2023-11-14T01:55:37.388Z,8.40
2023-11-14T01:58:04.540Z,7.93
2023-11-14T02:00:32.240Z,9.47
2023-11-14T02:03:00.378Z,6.67
2023-11-14T02:05:28.824Z,8.00
2023-11-14T02:07:55.946Z,9.67
2023-11-14T02:10:22.798Z,10.13
2023-11-14T02:12:49.655Z,10.53
2023-11-14T02:15:16.447Z,9.87
2023-11-14T02:17:45.180Z,10.03
2023-11-14T02:20:12.570Z,10.33
2023-11-14T02:22:40.208Z,8.60
2023-11-14T02:25:08.348Z,11.43
2023-11-14T02:27:39.167Z,9.07
2023-11-14T02:30:07.259Z,9.23
2023-11-14T02:32:34.121Z,5.63
2023-11-14T02:35:01.022Z,10.90
2023-11-14T02:37:27.954Z,11.03
2023-11-14T02:39:55.516Z,6.77
2023-11-14T02:42:22.479Z,15.57
2023-11-14T02:44:49.526Z,9.07
2023-11-14T02:47:18.226Z,7.90
2023-11-14T02:50:06.682Z,9.43
2023-11-14T02:52:39.775Z,10.50
2023-11-14T02:55:06.921Z,10.03
2023-11-14T02:57:33.673Z,8.73
2023-11-14T03:00:00.485Z,12.70
2023-11-14T03:02:27.513Z,10.87
2023-11-14T03:04:54.443Z,11.83
2023-11-14T03:07:21.256Z,13.03
2023-11-14T03:09:48.142Z,8.40
2023-11-14T03:12:15.009Z,14.27
2023-11-14T03:14:41.741Z,10.10
2023-11-14T03:17:08.721Z,14.80
2023-11-14T03:19:40.574Z,11.90
2023-11-14T03:22:07.420Z,13.70
2023-11-14T03:24:34.152Z,13.93
2023-11-14T03:27:00.878Z,12.33
2023-11-14T03:29:27.616Z,12.07
2023-11-14T03:31:54.552Z,15.67
2023-11-14T03:34:21.422Z,10.73
2023-11-14T03:36:53.943Z,12.50
2023-11-14T03:39:21.443Z,15.77
2023-11-14T03:41:48.214Z,18.57
2023-11-14T03:44:14.979Z,13.47
2023-11-14T03:46:43.097Z,17.40
2023-11-14T03:49:09.934Z,15.63
2023-11-14T03:51:36.792Z,11.60
2023-11-14T03:54:03.825Z,12.57
2023-11-14T03:56:30.569Z,14.63
2023-11-14T03:58:57.397Z,15.87
2023-11-14T04:01:24.500Z,12.27
2023-11-14T04:03:52.616Z,12.60
2023-11-14T04:06:19.525Z,14.80
2023-11-14T04:08:46.291Z,12.33
2023-11-14T04:11:14.883Z,12.53
2023-11-14T04:13:41.904Z,17.93
2023-11-14T04:16:10.581Z,16.13
2023-11-14T04:18:39.632Z,9.93
2023-11-14T04:21:06.557Z,7.90
2023-11-14T04:23:33.308Z,15.57
2023-11-14T04:25:59.983Z,10.37
2023-11-14T04:28:26.749Z,17.40
2023-11-14T04:30:53.621Z,10.93
2023-11-14T04:33:20.552Z,12.60
2023-11-14T04:35:47.366Z,11.13
2023-11-14T04:38:14.190Z,8.70
2023-11-14T04:40:40.926Z,8.20
2023-11-14T04:43:07.656Z,13.73
2023-11-14T04:45:34.370Z,14.40
2023-11-14T04:48:01.370Z,7.53
2023-11-14T04:50:28.224Z,10.93
2023-11-14T04:52:55.252Z,10.20
2023-11-14T04:55:21.991Z,13.00
2023-11-14T04:57:48.860Z,7.83
2023-11-14T05:00:16.073Z,15.50
2023-11-14T05:02:43.848Z,13.40
2023-11-14T05:05:10.846Z,10.80
2023-11-14T05:07:38.236Z,9.73
2023-11-14T05:10:05.300Z,17.07
2023-11-14T05:12:32.042Z,14.10
2023-11-14T05:14:58.811Z,10.27
2023-11-14T05:17:25.863Z,11.87
2023-11-14T05:19:52.785Z,14.47
2023-11-14T05:22:20.256Z,14.10
2023-11-14T05:24:48.385Z,9.47
2023-11-14T05:27:15.134Z,10.40
2023-11-14T05:29:41.848Z,14.87
2023-11-14T05:32:11.068Z,12.63
2023-11-14T05:34:37.812Z,11.13
2023-11-14T05:37:05.678Z,9.90
2023-11-14T05:39:32.399Z,10.77
2023-11-14T05:41:59.213Z,11.00
2023-11-14T05:44:25.960Z,11.17
2023-11-14T05:46:52.692Z,12.43
2023-11-14T05:49:20.405Z,11.10
2023-11-14T05:51:47.482Z,18.23
2023-11-14T05:54:14.246Z,15.17
2023-11-14T05:56:41.026Z,11.73
2023-11-14T05:59:10.210Z,18.23
2023-11-14T06:01:37.349Z,19.23
2023-11-14T06:04:04.433Z,13.37
2023-11-14T06:06:31.303Z,10.17
2023-11-14T06:08:58.022Z,13.93
2023-11-14T06:11:24.879Z,22.63
2023-11-14T06:13:51.761Z,9.87
2023-11-14T06:16:19.113Z,14.50
2023-11-14T06:18:46.452Z,15.60
2023-11-14T06:21:13.299Z,23.10
2023-11-14T06:23:40.051Z,12.87
2023-11-14T06:26:07.158Z,19.97
2023-11-14T06:28:34.448Z,10.60
2023-11-14T06:31:01.261Z,16.50
2023-11-14T06:33:33.235Z,11.70
2023-11-14T06:36:01.084Z,16.03
2023-11-14T06:38:29.086Z,15.57
2023-11-14T06:40:57.180Z,18.97
2023-11-14T06:43:24.097Z,15.17
2023-11-14T06:45:51.427Z,18.87
2023-11-14T06:48:18.283Z,14.40
2023-11-14T06:50:45.748Z,15.90
2023-11-14T06:53:13.306Z,15.70
2023-11-14T06:55:41.130Z,19.70
2023-11-14T06:58:08.879Z,10.40
2023-11-14T07:00:36.695Z,12.50
2023-11-14T07:03:04.637Z,16.97
2023-11-14T07:05:31.959Z,15.90
2023-11-14T07:07:59.407Z,17.07
2023-11-14T07:10:26.247Z,16.57
2023-11-14T07:12:53.238Z,14.83
2023-11-14T07:15:22.098Z,17.60
2023-11-14T07:17:50.828Z,14.50
2023-11-14T07:20:22.089Z,19.07
2023-11-14T07:22:49.890Z,14.70
2023-11-14T07:25:17.457Z,17.37
2023-11-14T07:27:47.338Z,21.37
2023-11-14T07:30:14.298Z,23.10
2023-11-14T07:32:42.100Z,20.17
2023-11-14T07:35:11.647Z,25.20
2023-11-14T07:37:39.044Z,21.80
2023-11-14T07:40:07.717Z,27.03
2023-11-14T07:42:34.888Z,25.03
2023-11-14T07:45:01.836Z,20.77
2023-11-14T07:47:29.420Z,17.07
2023-11-14T07:49:56.314Z,13.97
2023-11-14T07:52:23.087Z,12.70
2023-11-14T07:54:50.872Z,10.50
2023-11-14T07:57:17.637Z,16.43
2023-11-14T07:59:44.518Z,15.70
2023-11-14T08:02:11.372Z,14.80
2023-11-14T08:04:38.640Z,17.67
2023-11-14T08:07:08.495Z,13.57
2023-11-14T08:09:35.617Z,15.23
2023-11-14T08:12:02.696Z,16.07
2023-11-14T08:14:29.680Z,17.20
2023-11-14T08:16:56.473Z,8.17
2023-11-14T08:19:24.515Z,10.63
2023-11-14T08:21:51.264Z,15.50
2023-11-14T08:24:20.194Z,16.00
2023-11-14T08:26:46.975Z,11.13
2023-11-14T08:29:13.860Z,12.60
2023-11-14T08:31:41.102Z,16.73
2023-11-14T08:34:09.419Z,10.07
2023-11-14T08:36:36.359Z,11.73
2023-11-14T08:39:03.358Z,18.20
2023-11-14T08:41:30.303Z,8.93
2023-11-14T08:43:58.394Z,9.47
2023-11-14T08:46:26.268Z,9.23
2023-11-14T08:48:53.208Z,11.37
2023-11-14T08:51:21.511Z,15.67
2023-11-14T08:53:48.935Z,9.67
2023-11-14T08:56:15.960Z,12.93
2023-11-14T08:58:42.829Z,15.07
2023-11-14T09:01:12.608Z,10.17
2023-11-14T09:03:39.484Z,18.80
2023-11-14T09:06:06.609Z,10.23
2023-11-14T09:08:33.464Z,17.53
2023-11-14T09:11:00.594Z,13.63
2023-11-14T09:13:27.427Z,14.37
2023-11-14T09:15:56.175Z,11.70
2023-11-14T09:18:23.214Z,14.77
2023-11-14T09:20:50.428Z,14.03
2023-11-14T09:23:17.256Z,10.63
2023-11-14T09:25:44.021Z,13.93
2023-11-14T09:28:11.409Z,8.50
2023-11-14T09:30:38.281Z,12.77
2023-11-14T09:33:05.115Z,12.87
2023-11-14T09:35:32.103Z,14.17
2023-11-14T09:37:58.995Z,14.93
2023-11-14T09:40:26.768Z,12.67
2023-11-14T09:42:54.537Z,12.27
2023-11-14T09:45:25.538Z,10.27
2023-11-14T09:47:52.805Z,13.40
2023-11-14T09:50:20.848Z,13.13
2023-11-14T09:52:48.652Z,11.07
2023-11-14T09:55:15.971Z,10.03
2023-11-14T09:57:49.680Z,17.63
2023-11-14T10:00:17.312Z,14.13
2023-11-14T10:02:44.167Z,11.13
2023-11-14T10:05:16.491Z,12.30
2023-11-14T10:07:44.535Z,11.23
2023-11-14T10:10:12.977Z,10.53
2023-11-14T10:12:40.895Z,9.60
2023-11-14T10:15:08.880Z,13.10
2023-11-14T10:17:49.563Z,10.63
2023-11-14T10:20:22.647Z,13.43
2023-11-14T10:22:59.151Z,9.83
2023-11-14T10:25:33.606Z,8.70
2023-11-14T10:28:05.935Z,12.03
2023-11-14T10:30:50.533Z,12.90
2023-11-14T10:33:18.055Z,9.60
2023-11-14T10:35:46.657Z,8.43
2023-11-14T10:38:22.916Z,10.80
2023-11-14T10:40:55.168Z,14.47
2023-11-14T10:43:27.948Z,8.77
2023-11-14T10:46:00.653Z,7.37
2023-11-14T10:48:27.604Z,8.60
2023-11-14T10:50:56.370Z,8.83
2023-11-14T10:53:24.337Z,10.83
2023-11-14T10:55:53.607Z,7.23
2023-11-14T10:58:20.755Z,11.20
2023-11-14T11:00:48.210Z,10.60
2023-11-14T11:03:15.761Z,10.57
2023-11-14T11:05:42.904Z,11.17
2023-11-14T11:08:11.618Z,13.50
2023-11-14T11:10:40.523Z,8.60
2023-11-14T11:13:28.281Z,10.40
2023-11-14T11:15:56.730Z,8.27
2023-11-14T11:18:35.429Z,9.80
2023-11-14T11:21:14.289Z,12.57
2023-11-14T11:24:14.913Z,9.53
2023-11-14T11:27:06.520Z,11.77
2023-11-14T11:30:06.068Z,6.73
2023-11-14T11:32:34.868Z,9.73
2023-11-14T11:35:24.132Z,9.03
2023-11-14T11:38:11.230Z,9.68
2023-11-14T11:41:14.626Z,9.52
2023-11-14T11:43:46.222Z,9.48
2023-11-14T11:46:41.460Z,12.98
2023-11-14T11:49:13.642Z,7.87
2023-11-14T11:51:44.864Z,9.35
2023-11-14T11:54:29.627Z,10.47
2023-11-14T11:57:08.510Z,5.97
2023-11-14T11:59:41.303Z,8.10
2023-11-14T12:02:13.320Z,9.93
2023-11-14T12:04:41.018Z,13.13
2023-11-14T12:07:08.106Z,9.73
2023-11-14T12:09:36.720Z,6.07
2023-11-14T12:12:03.969Z,8.13
2023-11-14T12:14:31.584Z,10.55
2023-11-14T12:17:00.299Z,15.32
2023-11-14T12:19:27.833Z,10.63
2023-11-14T12:21:56.121Z,6.80
2023-11-14T12:24:23.716Z,7.53
2023-11-14T12:26:51.090Z,9.77
2023-11-14T12:29:19.150Z,7.85
2023-11-14T12:31:48.215Z,9.07
2023-11-14T12:34:32.143Z,9.05
2023-11-14T12:37:09.626Z,4.85
2023-11-14T12:39:36.700Z,8.18
2023-11-14T12:42:05.396Z,9.38
2023-11-14T12:44:36.418Z,7.90
2023-11-14T12:47:03.779Z,5.07
2023-11-14T12:49:32.759Z,9.25
2023-11-14T12:52:02.634Z,7.03
2023-11-14T12:54:29.526Z,7.50
2023-11-14T12:56:56.370Z,7.82
2023-11-14T12:59:23.771Z,9.10
2023-11-14T13:01:51.140Z,8.18
2023-11-14T13:04:18.533Z,7.15
2023-11-14T13:06:49.058Z,4.53
2023-11-14T13:09:18.070Z,6.93
2023-11-14T13:11:45.444Z,8.70
2023-11-14T13:14:14.337Z,5.97
2023-11-14T13:16:42.462Z,9.80
2023-11-14T13:19:11.524Z,8.45
2023-11-14T13:21:38.472Z,7.78
2023-11-14T13:24:06.655Z,6.45
2023-11-14T13:26:33.839Z,5.53
2023-11-14T13:29:00.646Z,11.25
2023-11-14T13:31:27.722Z,7.97
2023-11-14T13:33:54.546Z,5.93
2023-11-14T13:36:22.853Z,7.97
2023-11-14T13:38:50.010Z,7.10
2023-11-14T13:41:17.479Z,5.90
2023-11-14T13:43:45.315Z,4.72
2023-11-14T13:46:23.541Z,9.30
2023-11-14T13:48:55.536Z,7.23
2023-11-14T13:51:22.881Z,7.80
2023-11-14T13:53:51.637Z,7.40
2023-11-14T13:56:18.852Z,4.22
2023-11-14T13:58:46.190Z,5.20
2023-11-14T14:01:13.628Z,11.18
2023-11-14T14:03:41.157Z,6.93
2023-11-14T14:06:08.777Z,7.30
2023-11-14T14:08:38.866Z,6.47
2023-11-14T14:11:10.166Z,9.40
2023-11-14T14:13:37.233Z,6.60
2023-11-14T14:16:05.005Z,6.63
2023-11-14T14:18:32.998Z,7.87
2023-11-14T14:21:04.343Z,7.87
2023-11-14T14:23:31.801Z,7.63
2023-11-14T14:26:01.493Z,7.70
2023-11-14T14:28:34.866Z,6.23
2023-11-14T14:31:04.146Z,6.40
2023-11-14T14:33:33.349Z,6.33
2023-11-14T14:36:00.290Z,8.73
2023-11-14T14:38:27.223Z,7.33
2023-11-14T14:40:54.133Z,10.50
2023-11-14T14:43:20.989Z,9.03
2023-11-14T14:45:48.270Z,6.90
2023-11-14T14:48:15.227Z,11.17
2023-11-14T14:50:42.350Z,13.03
2023-11-14T14:53:11.278Z,8.23
2023-11-14T14:55:38.367Z,8.27
2023-11-14T14:58:08.150Z,8.10
2023-11-14T15:00:35.075Z,9.60
2023-11-14T15:03:02.794Z,6.43
2023-11-14T15:05:36.521Z,8.07
2023-11-14T15:08:07.948Z,12.67
2023-11-14T15:10:35.877Z,10.63
2023-11-14T15:13:05.237Z,9.47
2023-11-14T15:15:33.085Z,7.17
2023-11-14T15:17:59.995Z,12.90
2023-11-14T15:20:27.342Z,7.03
2023-11-14T15:22:54.491Z,5.20
2023-11-14T15:25:21.570Z,8.57
2023-11-14T15:27:48.479Z,8.13
2023-11-14T15:30:16.038Z,6.50
2023-11-14T15:32:44.079Z,8.00
2023-11-14T15:35:11.115Z,8.87
2023-11-14T15:37:37.942Z,7.23
2023-11-14T15:40:11.015Z,5.93
2023-11-14T15:42:39.658Z,8.80
2023-11-14T15:45:07.529Z,7.57
2023-11-14T15:47:34.707Z,6.53
2023-11-14T15:50:02.154Z,8.23
2023-11-14T15:52:29.534Z,5.43
2023-11-14T15:54:59.083Z,4.37
2023-11-14T15:57:27.761Z,6.87
2023-11-14T15:59:55.242Z,6.23
2023-11-14T16:02:22.328Z,7.10
2023-11-14T16:04:49.669Z,10.10
2023-11-14T16:07:16.884Z,6.77
2023-11-14T16:09:43.696Z,8.03
2023-11-14T16:12:10.616Z,9.43
2023-11-14T16:14:37.593Z,5.83
2023-11-14T16:17:05.508Z,5.97
2023-11-14T16:19:38.275Z,6.20
2023-11-14T16:22:06.313Z,5.53
2023-11-14T16:24:33.509Z,6.97
2023-11-14T16:27:01.737Z,7.87
2023-11-14T16:29:28.716Z,7.47
2023-11-14T16:31:55.550Z,11.27
2023-11-14T16:34:22.346Z,6.97
2023-11-14T16:36:49.109Z,7.37
2023-11-14T16:39:16.731Z,8.23
2023-11-14T16:41:43.644Z,6.93
2023-11-14T16:44:10.504Z,5.60
2023-11-14T16:46:40.644Z,7.17
2023-11-14T16:49:07.750Z,6.07
2023-11-14T16:51:35.150Z,5.95
2023-11-14T16:54:02.907Z,5.00
2023-11-14T16:56:30.202Z,9.30
2023-11-14T16:58:59.281Z,6.13
2023-11-14T17:01:28.938Z,7.23
2023-11-14T17:03:59.305Z,5.57
2023-11-14T17:06:26.487Z,6.70
2023-11-14T17:08:53.354Z,3.87
2023-11-14T17:11:20.253Z,8.27
2023-11-14T17:13:47.066Z,4.93
2023-11-14T17:16:14.508Z,7.00
2023-11-14T17:18:41.470Z,4.13
2023-11-14T17:21:08.204Z,7.10
2023-11-14T17:23:38.431Z,7.87
2023-11-14T17:26:06.374Z,6.23
2023-11-14T17:28:35.559Z,3.87
2023-11-14T17:31:03.488Z,6.07
2023-11-14T17:33:30.438Z,6.70
2023-11-14T17:35:57.255Z,3.63
2023-11-14T17:38:24.062Z,5.23
2023-11-14T17:40:52.774Z,10.13
2023-11-14T17:43:20.299Z,9.27
2023-11-14T17:45:47.152Z,4.17
2023-11-14T17:48:13.956Z,7.70
2023-11-14T17:50:40.970Z,6.60
2023-11-14T17:53:08.305Z,7.13
2023-11-14T17:55:35.350Z,4.70
2023-11-14T17:58:03.988Z,5.27
2023-11-14T18:00:31.622Z,9.20
2023-11-14T18:02:59.510Z,4.73
2023-11-14T18:05:27.269Z,5.67
2023-11-14T18:07:54.510Z,7.33
2023-11-14T18:10:21.371Z,9.47
2023-11-14T18:12:50.719Z,7.53
2023-11-14T18:15:18.719Z,6.13
2023-11-14T18:17:46.241Z,9.50
2023-11-14T18:20:13.590Z,11.80
2023-11-14T18:22:40.505Z,7.40
2023-11-14T18:25:07.728Z,10.40
2023-11-14T18:27:35.349Z,8.50
2023-11-14T18:30:02.288Z,7.50
2023-11-14T18:32:33.194Z,7.13
2023-11-14T18:35:01.347Z,6.17
2023-11-14T18:37:28.121Z,5.43
2023-11-14T18:39:54.884Z,7.00
2023-11-14T18:42:21.633Z,7.03
2023-11-14T18:45:01.053Z,7.20
2023-11-14T18:47:33.778Z,8.73
2023-11-14T18:50:01.169Z,7.83
2023-11-14T18:52:27.988Z,7.57
2023-11-14T18:54:56.622Z,8.87
2023-11-14T18:57:23.492Z,6.63
2023-11-14T18:59:51.809Z,9.80
2023-11-14T19:02:18.690Z,8.17
2023-11-14T19:04:45.695Z,11.67
2023-11-14T19:07:12.620Z,9.90
2023-11-14T19:09:39.487Z,8.53
2023-11-14T19:12:07.823Z,7.03
2023-11-14T19:14:34.618Z,6.87
2023-11-14T19:17:01.679Z,10.30
2023-11-14T19:19:29.192Z,13.57
2023-11-14T19:22:00.267Z,10.10
2023-11-14T19:24:32.202Z,12.83
2023-11-14T19:26:58.937Z,8.13
2023-11-14T19:29:26.766Z,8.23
2023-11-14T19:31:53.654Z,10.03
2023-11-14T19:34:20.575Z,9.67
2023-11-14T19:36:49.491Z,4.80
2023-11-14T19:39:19.874Z,8.80
2023-11-14T19:41:47.440Z,8.20
2023-11-14T19:44:14.516Z,4.87
2023-11-14T19:46:42.364Z,7.30
2023-11-14T19:49:09.414Z,8.27
2023-11-14T19:51:36.231Z,4.47
2023-11-14T19:54:03.589Z,9.43
2023-11-14T19:56:30.734Z,7.67
2023-11-14T19:58:57.490Z,6.30
2023-11-14T20:01:25.463Z,8.13
2023-11-14T20:03:54.550Z,3.87
2023-11-14T20:06:21.548Z,6.70
2023-11-14T20:08:48.670Z,5.10
2023-11-14T20:11:17.149Z,6.43
2023-11-14T20:13:44.689Z,5.20
2023-11-14T20:16:11.735Z,3.17
2023-11-14T20:18:38.932Z,4.90
2023-11-14T20:21:06.915Z,4.57
2023-11-14T20:23:35.672Z,3.53
2023-11-14T20:26:07.302Z,5.07
2023-11-14T20:28:34.109Z,6.27
2023-11-14T20:31:01.367Z,4.40
2023-11-14T20:33:28.373Z,3.17
2023-11-14T20:35:55.128Z,3.77
2023-11-14T20:38:21.961Z,2.00
2023-11-14T20:40:48.688Z,2.23
2023-11-14T20:43:15.458Z,4.40
2023-11-14T20:45:42.567Z,5.57
2023-11-14T20:48:09.578Z,3.07
2023-11-14T20:50:36.844Z,4.27
2023-11-14T20:53:03.635Z,1.47
2023-11-14T20:55:30.382Z,1.50
2023-11-14T20:57:57.201Z,2.43
2023-11-14T21:00:23.987Z,1.40
2023-11-14T21:02:51.062Z,3.10
2023-11-14T21:05:17.976Z,1.40
2023-11-14T21:07:44.841Z,4.20
2023-11-14T21:10:11.611Z,4.27
2023-11-14T21:12:38.411Z,3.40
2023-11-14T21:15:06.328Z,2.70
2023-11-14T21:17:42.589Z,2.13
2023-11-14T21:20:16.936Z,2.60
2023-11-14T21:22:46.773Z,1.10
2023-11-14T21:25:13.549Z,1.23
2023-11-14T21:27:42.274Z,2.73
2023-11-14T21:30:10.600Z,1.30
2023-11-14T21:32:40.015Z,2.13
2023-11-14T21:35:09.275Z,1.77
2023-11-14T21:37:37.083Z,2.53
2023-11-14T21:40:04.348Z,4.07
2023-11-14T21:42:31.250Z,5.10
2023-11-14T21:44:58.126Z,1.87
2023-11-14T21:47:24.894Z,2.10
2023-11-14T21:49:51.778Z,2.73
2023-11-14T21:52:18.532Z,2.77
2023-11-14T21:54:45.366Z,1.77
2023-11-14T21:57:12.852Z,2.03
2023-11-14T21:59:39.705Z,2.00
2023-11-14T22:02:06.527Z,1.40
2023-11-14T22:04:33.315Z,2.97
2023-11-14T22:07:00.042Z,2.83
2023-11-14T22:09:26.776Z,2.83
2023-11-14T22:11:54.196Z,2.07
2023-11-14T22:14:20.947Z,2.23
2023-11-14T22:16:47.650Z,1.43
2023-11-14T22:19:14.369Z,3.17
2023-11-14T22:21:41.116Z,1.33
2023-11-14T22:24:08.466Z,1.30
2023-11-14T22:26:35.213Z,1.20
2023-11-14T22:29:02.066Z,1.83
2023-11-14T22:31:29.045Z,2.67
2023-11-14T22:33:56.041Z,2.50
2023-11-14T22:36:22.732Z,1.33
2023-11-14T22:38:49.547Z,1.63
2023-11-14T22:41:16.443Z,3.53
2023-11-14T22:43:43.182Z,3.23
2023-11-14T22:46:21.024Z,2.90
2023-11-14T22:48:48.125Z,2.97
2023-11-14T22:51:14.969Z,2.53
2023-11-14T22:53:41.775Z,1.40
2023-11-14T22:56:17.802Z,2.57
2023-11-14T22:58:44.623Z,3.23
2023-11-14T23:01:14.531Z,2.00
2023-11-14T23:03:43.825Z,1.67
2023-11-14T23:06:12.258Z,1.77
2023-11-14T23:08:39.036Z,1.47
2023-11-14T23:11:06.051Z,1.47
2023-11-14T23:13:33.475Z,3.60
2023-11-14T23:16:01.986Z,3.30
2023-11-14T23:18:28.794Z,1.53
2023-11-14T23:20:55.763Z,1.50
2023-11-14T23:23:23.481Z,0.73
2023-11-14T23:25:50.388Z,3.13
2023-11-14T23:28:17.222Z,0.97
2023-11-14T23:30:44.778Z,1.80
2023-11-14T23:33:12.609Z,0.90
2023-11-14T23:35:39.467Z,1.27
2023-11-14T23:38:06.368Z,2.20
2023-11-14T23:40:34.795Z,2.00
2023-11-14T23:43:01.756Z,1.70
2023-11-14T23:45:30.791Z,3.20
2023-11-14T23:47:57.785Z,1.20
2023-11-14T23:50:24.678Z,2.07
2023-11-14T23:52:51.832Z,1.83
2023-11-14T23:55:19.716Z,0.97
2023-11-14T23:57:48.559Z,1.17
